Time;durP1;ratioP1;P1;durP2;ratioP2;P2;SDS_P1;SDS_P2;PMS_P1;PMS_P2;Temp;Humidity;BMP_temperature;BMP_pressure;BME280_temperature;BME280_humidity;BME280_pressure;Samples;Min_cycle;Max_cycle;Signal;HPM_P1;HPM_P2
2022/07/23 00:01:35;;;;;;;;;;;;;;;14.79;100.00;-25483.25;5035208;28;20276;-80
2022/07/23 00:04:02;;;;;;;;;;;;;;;14.76;100.00;-25482.22;5016751;28;19917;-79
2022/07/23 00:06:27;;;;;;;;;;;;;;;14.76;100.00;-25482.38;5015683;28;20394;-79
2022/07/23 00:08:53;;;;;;;;;;;;;;;14.72;100.00;-25481.19;5032449;28;19928;-79
2022/07/23 00:11:18;;;;;;;;;;;;;;;14.67;100.00;-25479.88;5017065;28;19913;-79
2022/07/23 00:13:50;;;;;;;;;;;;;;;14.63;100.00;-25478.72;5034485;28;19944;-79
2022/07/23 00:16:15;;;;;;;;;;;;;;;14.58;100.00;-25477.25;5016812;28;19924;-81
2022/07/23 00:18:40;;;;;;;;;;;;;;;14.57;100.00;-25476.97;5016916;28;19920;-79
2022/07/23 00:21:06;;;;;;;;;;;;;;;14.51;100.00;-25475.22;5016465;28;20277;-80
2022/07/23 00:23:35;;;;;;;;;;;;;;;14.43;100.00;-25473.03;5033756;28;20512;-79
2022/07/23 00:26:00;;;;;;;;;;;;;;;14.44;100.00;-25473.19;5016994;28;20223;-80
2022/07/23 00:28:25;;;;;;;;;;;;;;;14.48;100.00;-25474.50;5016948;28;19913;-80
2022/07/23 00:30:51;;;;;;;;;;;;;;;14.41;100.00;-25472.47;5016764;28;19975;-80
2022/07/23 00:33:16;;;;;;;;;;;;;;;14.39;100.00;-25471.88;5017387;28;19913;-80
2022/07/23 00:35:41;;;;;;;;;;;;;;;14.31;100.00;-25469.53;5036511;28;19912;-80
2022/07/23 00:38:08;;;;;;;;;;;;;;;14.27;100.00;-25468.53;5021005;28;19953;-80
2022/07/23 00:40:33;;;;;;;;;;;;;;;14.29;100.00;-25468.97;5017940;28;19913;-80
2022/07/23 00:43:04;;;;;;;;;;;;;;;14.33;100.00;-25470.28;5015925;28;19913;-80
2022/07/23 00:45:30;;;;;;;;;;;;;;;14.32;100.00;-25469.97;5019213;28;19917;-80
2022/07/23 00:47:55;;;;;;;;;;;;;;;14.30;100.00;-25469.25;5019834;28;19909;-80
2022/07/23 00:50:21;;;;;;;;;;;;;;;14.22;100.00;-25466.91;5037870;28;19917;-80
2022/07/23 00:52:48;;;;;;;;;;;;;;;14.22;100.00;-25466.91;5016509;28;19909;-81
2022/07/23 00:55:14;;;;;;;;;;;;;;;14.24;100.00;-25467.50;5034092;28;19917;-81
2022/07/23 00:57:40;;;;;;;;;;;;;;;14.26;100.00;-25468.22;5016652;28;19971;-81
2022/07/23 01:00:07;;;;;;;;;;;;;;;14.31;100.00;-25469.53;5016028;28;19909;-80
2022/07/23 01:02:41;;;;;;;;;;;;;;;14.24;100.00;-25467.66;5034035;28;20554;-81
2022/07/23 01:05:07;;;;;;;;;;;;;;;14.20;100.00;-25466.47;5016134;28;19920;-81
2022/07/23 01:07:32;;;;;;;;;;;;;;;14.19;100.00;-25466.34;5015925;28;19920;-80
2022/07/23 01:09:58;;;;;;;;;;;;;;;14.16;100.00;-25465.47;5033648;28;19988;-81
2022/07/23 01:12:23;;;;;;;;;;;;;;;14.14;100.00;-25464.72;5033705;28;20270;-82
2022/07/23 01:14:55;;;;;;;;;;;;;;;14.09;100.00;-25463.41;5015908;28;20368;-82
2022/07/23 01:17:20;;;;;;;;;;;;;;;14.06;100.00;-25462.53;5033323;28;19917;-82
2022/07/23 01:19:46;;;;;;;;;;;;;;;14.05;100.00;-25462.25;5016402;28;20043;-82
2022/07/23 01:22:12;;;;;;;;;;;;;;;14.03;100.00;-25461.66;5015814;28;19960;-81
2022/07/23 01:24:41;;;;;;;;;;;;;;;13.98;100.00;-25460.22;5032450;28;19959;-82
2022/07/23 01:27:07;;;;;;;;;;;;;;;14.00;100.00;-25460.94;5032593;28;19913;-81
2022/07/23 01:29:32;;;;;;;;;;;;;;;14.02;100.00;-25461.22;5015786;28;19913;-81
2022/07/23 01:31:57;;;;;;;;;;;;;;;14.02;100.00;-25461.22;5015798;28;19948;-81
2022/07/23 01:34:27;;;;;;;;;;;;;;;14.00;100.00;-25460.94;5016154;28;19956;-80
2022/07/23 01:36:53;;;;;;;;;;;;;;;14.01;100.00;-25461.09;5016485;28;19917;-80
2022/07/23 01:39:18;;;;;;;;;;;;;;;13.94;100.00;-25459.19;5015963;28;19920;-80
2022/07/23 01:41:43;;;;;;;;;;;;;;;13.90;100.00;-25457.88;5015846;28;19917;-80
2022/07/23 01:44:11;;;;;;;;;;;;;;;13.82;100.00;-25455.84;5015710;28;19923;-82
2022/07/23 01:46:37;;;;;;;;;;;;;;;13.89;100.00;-25457.59;5033598;28;19995;-80
2022/07/23 01:49:03;;;;;;;;;;;;;;;13.81;100.00;-25455.53;5016671;28;19909;-80
2022/07/23 01:51:28;;;;;;;;;;;;;;;13.83;100.00;-25455.97;5033666;28;19920;-81
2022/07/23 01:53:55;;;;;;;;;;;;;;;13.87;100.00;-25457.16;5034899;28;20376;-81
2022/07/23 01:56:20;;;;;;;;;;;;;;;13.83;100.00;-25456.13;5020035;28;19920;-80
2022/07/23 01:58:46;;;;;;;;;;;;;;;13.80;100.00;-25455.09;5019728;28;19913;-80
2022/07/23 02:01:11;;;;;;;;;;;;;;;13.78;100.00;-25454.53;5036655;28;19913;-81
2022/07/23 02:03:38;;;;;;;;;;;;;;;13.75;100.00;-25453.66;5019237;28;19960;-81
2022/07/23 02:06:03;;;;;;;;;;;;;;;13.76;100.00;-25453.94;5017539;28;20006;-81
2022/07/23 02:08:28;;;;;;;;;;;;;;;13.70;100.00;-25452.19;5019541;28;19971;-80
2022/07/23 02:10:55;;;;;;;;;;;;;;;13.60;100.00;-25449.56;5019160;28;19913;-80
2022/07/23 02:13:23;;;;;;;;;;;;;;;13.60;100.00;-25449.56;5018822;28;20376;-80
2022/07/23 02:15:48;;;;;;;;;;;;;;;13.65;100.00;-25451.03;5019505;28;19959;-81
2022/07/23 02:18:14;;;;;;;;;;;;;;;13.71;100.00;-25452.63;5036790;28;19920;-81
2022/07/23 02:20:39;;;;;;;;;;;;;;;13.72;100.00;-25452.78;5019159;28;19959;-80
2022/07/23 02:23:07;;;;;;;;;;;;;;;13.72;100.00;-25452.78;5018801;28;20008;-81
2022/07/23 02:25:32;;;;;;;;;;;;;;;13.76;100.00;-25454.09;5037093;28;19913;-81
2022/07/23 02:27:59;;;;;;;;;;;;;;;13.71;100.00;-25452.47;5018776;28;20294;-80
2022/07/23 02:30:24;;;;;;;;;;;;;;;13.67;100.00;-25451.31;5019178;28;19967;-80
2022/07/23 02:32:49;;;;;;;;;;;;;;;13.62;100.00;-25450.00;5018817;28;20324;-80
2022/07/23 02:35:15;;;;;;;;;;;;;;;13.56;100.00;-25448.38;5019036;28;19913;-80
2022/07/23 02:37:40;;;;;;;;;;;;;;;13.53;100.00;-25447.38;5037199;28;20411;-79
2022/07/23 02:40:05;;;;;;;;;;;;;;;13.54;100.00;-25447.66;5016148;28;19917;-80
2022/07/23 02:42:31;;;;;;;;;;;;;;;13.51;100.00;-25446.78;5017329;28;19951;-80
2022/07/23 02:44:56;;;;;;;;;;;;;;;13.46;100.00;-25445.47;5018275;28;20345;-80
2022/07/23 02:47:22;;;;;;;;;;;;;;;13.44;100.00;-25444.91;5018489;28;20007;-79
2022/07/23 02:49:47;;;;;;;;;;;;;;;13.48;100.00;-25445.91;5036272;28;19920;-79
2022/07/23 02:52:13;;;;;;;;;;;;;;;13.44;100.00;-25444.91;5036042;28;19916;-80
2022/07/23 02:54:38;;;;;;;;;;;;;;;13.41;100.00;-25444.16;5018262;28;19959;-80
2022/07/23 02:57:04;;;;;;;;;;;;;;;13.50;100.00;-25446.66;5018070;28;20346;-79
2022/07/23 02:59:29;;;;;;;;;;;;;;;13.52;100.00;-25447.09;5018276;28;19913;-80
2022/07/23 03:01:54;;;;;;;;;;;;;;;13.47;100.00;-25445.78;5018028;28;19975;-80
2022/07/23 03:04:21;;;;;;;;;;;;;;;13.46;100.00;-25445.47;5017952;28;19924;-80
2022/07/23 03:06:47;;;;;;;;;;;;;;;13.45;100.00;-25445.34;5034970;28;19916;-80
2022/07/23 03:09:12;;;;;;;;;;;;;;;13.46;100.00;-25445.47;5018425;28;19908;-80
2022/07/23 03:11:37;;;;;;;;;;;;;;;13.45;100.00;-25445.19;5018313;28;20400;-80
2022/07/23 03:14:16;;;;;;;;;;;;;;;13.41;100.00;-25444.16;5018045;28;19959;-80
2022/07/23 03:16:41;;;;;;;;;;;;;;;13.36;100.00;-25442.72;5018346;28;19917;-79
2022/07/23 03:19:06;;;;;;;;;;;;;;;13.38;100.00;-25443.28;5017824;28;20266;-81
2022/07/23 03:21:32;;;;;;;;;;;;;;;13.36;100.00;-25442.56;5018144;28;20423;-80
2022/07/23 03:23:57;;;;;;;;;;;;;;;13.37;100.00;-25443.00;5018077;28;20004;-81
2022/07/23 03:26:25;;;;;;;;;;;;;;;13.37;100.00;-25442.84;5018128;28;19913;-80
2022/07/23 03:28:50;;;;;;;;;;;;;;;13.36;100.00;-25442.56;5018863;28;19919;-80
2022/07/23 03:31:15;;;;;;;;;;;;;;;13.36;100.00;-25442.56;5017835;28;19913;-80
2022/07/23 03:33:41;;;;;;;;;;;;;;;13.29;100.00;-25440.78;5017453;28;20524;-81
2022/07/23 03:36:06;;;;;;;;;;;;;;;13.27;100.00;-25440.22;5017640;28;20386;-80
2022/07/23 03:38:31;;;;;;;;;;;;;;;13.25;100.00;-25439.63;5033908;28;19948;-81
2022/07/23 03:40:57;;;;;;;;;;;;;;;13.24;100.00;-25439.34;5017373;28;20460;-81
2022/07/23 03:43:25;;;;;;;;;;;;;;;13.27;100.00;-25440.22;5017131;28;19913;-80
2022/07/23 03:45:52;;;;;;;;;;;;;;;13.23;100.00;-25439.03;5017811;28;20433;-81
2022/07/23 03:48:17;;;;;;;;;;;;;;;13.18;100.00;-25437.59;5017435;28;19963;-80
2022/07/23 03:50:44;;;;;;;;;;;;;;;13.17;100.00;-25437.28;5034816;28;19944;-80
2022/07/23 03:53:13;;;;;;;;;;;;;;;13.21;100.00;-25438.31;5017263;28;19913;-80
2022/07/23 03:55:38;;;;;;;;;;;;;;;13.27;100.00;-25440.22;5017409;28;19959;-81
2022/07/23 03:58:03;;;;;;;;;;;;;;;13.28;100.00;-25440.50;5017236;28;20286;-81
2022/07/23 04:00:29;;;;;;;;;;;;;;;13.32;100.00;-25441.53;5017504;28;20285;-82
2022/07/23 04:02:54;;;;;;;;;;;;;;;13.37;100.00;-25443.00;5017116;28;19919;-81
2022/07/23 04:05:19;;;;;;;;;;;;;;;13.37;100.00;-25442.84;5017041;28;19928;-81
2022/07/23 04:07:45;;;;;;;;;;;;;;;13.44;100.00;-25444.91;5017454;28;19913;-82
2022/07/23 04:10:10;;;;;;;;;;;;;;;13.47;100.00;-25445.78;5015821;28;20134;-80
2022/07/23 04:12:35;;;;;;;;;;;;;;;13.52;100.00;-25447.22;5014775;28;19913;-81
2022/07/23 04:15:01;;;;;;;;;;;;;;;13.62;100.00;-25450.00;5015947;28;19917;-81
2022/07/23 04:17:26;;;;;;;;;;;;;;;13.70;100.00;-25452.19;5015776;28;19915;-81
2022/07/23 04:19:51;;;;;;;;;;;;;;;13.74;100.00;-25453.50;5016565;28;19916;-80
2022/07/23 04:22:17;;;;;;;;;;;;;;;13.84;100.00;-25456.28;5016630;28;19917;-81
2022/07/23 04:24:51;;;;;;;;;;;;;;;13.97;100.00;-25459.91;5016779;28;19920;-81
2022/07/23 04:27:17;;;;;;;;;;;;;;;14.19;100.00;-25466.34;5033824;28;20362;-82
2022/07/23 04:29:42;;;;;;;;;;;;;;;14.76;100.00;-25482.22;5016774;28;19909;-81
2022/07/23 04:32:07;;;;;;;;;;;;;;;15.56;100.00;-25505.06;5033882;28;19913;-82
2022/07/23 04:34:32;;;;;;;;;;;;;;;16.29;100.00;-25525.72;5016616;28;19919;-81
2022/07/23 04:36:58;;;;;;;;;;;;;;;16.66;100.00;-25536.16;5016093;28;19913;-82
2022/07/23 04:39:23;;;;;;;;;;;;;;;16.81;100.00;-25540.38;5016137;28;19920;-82
2022/07/23 04:41:48;;;;;;;;;;;;;;;17.27;100.00;-25553.28;5015804;28;20004;-80
2022/07/23 04:44:16;;;;;;;;;;;;;;;17.49;100.00;-25559.50;5033284;28;19917;-80
2022/07/23 04:46:41;;;;;;;;;;;;;;;17.54;100.00;-17300.50;5033793;28;19924;-81
2022/07/23 04:49:06;;;;;;;;;;;;;;;18.13;100.00;-8362.03;5016197;28;19916;-81
2022/07/23 04:51:31;;;;;;;;;;;;;;;18.21;100.00;4600.50;5016354;28;19913;-82
2022/07/23 04:54:01;;;;;;;;;;;;;;;18.59;100.00;14949.03;5015977;28;19909;-82
2022/07/23 04:56:26;;;;;;;;;;;;;;;18.75;100.00;42784.66;5013998;28;20008;-81
2022/07/23 04:58:51;;;;;;;;;;;;;;;18.89;100.00;77955.28;5017715;28;19955;-81
2022/07/23 05:01:16;;;;;;;;;;;;;;;19.66;100.00;109460.09;5016156;28;19917;-80
2022/07/23 05:03:43;;;;;;;;;;;;;;;19.68;100.00;134899.84;5016482;28;19956;-80
2022/07/23 05:06:08;;;;;;;;;;;;;;;20.19;100.00;147800.69;5015667;28;19948;-80
2022/07/23 05:08:34;;;;;;;;;;;;;;;19.56;100.00;147643.16;5033021;28;19920;-81
2022/07/23 05:10:59;;;;;;;;;;;;;;;18.58;100.00;147399.94;5014238;28;20003;-80
2022/07/23 05:13:25;;;;;;;;;;;;;;;17.68;100.00;147176.03;5015072;28;20324;-81
2022/07/23 05:15:51;;;;;;;;;;;;;;;17.15;100.00;147043.06;5033864;28;20008;-80
2022/07/23 05:18:16;;;;;;;;;;;;;;;17.12;100.00;135344.94;5015585;28;19948;-80
2022/07/23 05:20:42;;;;;;;;;;;;;;;17.04;100.00;116485.28;5015905;28;19921;-79
2022/07/23 05:23:12;;;;;;;;;;;;;;;16.98;100.00;107595.38;5015862;28;20361;-80
2022/07/23 05:25:37;;;;;;;;;;;;;;;17.16;100.00;102514.75;5016560;28;20238;-79
2022/07/23 05:28:03;;;;;;;;;;;;;;;17.04;100.00;97048.19;5018232;28;19913;-81
2022/07/23 05:30:28;;;;;;;;;;;;;;;17.20;100.00;99797.97;5019845;28;19913;-80
2022/07/23 05:33:01;;;;;;;;;;;;;;;16.92;100.00;99409.09;5040061;28;19913;-81
2022/07/23 05:35:26;;;;;;;;;;;;;;;17.45;100.00;89293.44;5021804;28;19912;-81
2022/07/23 05:37:52;;;;;;;;;;;;;;;17.66;100.00;101580.66;5022874;28;20461;-80
2022/07/23 05:40:18;;;;;;;;;;;;;;;17.15;100.00;100128.72;5020725;28;19913;-82
2022/07/23 05:42:58;;;;;;;;;;;;;;;17.18;100.00;93670.22;5036706;28;19913;-82
2022/07/23 05:45:23;;;;;;;;;;;;;;;16.92;100.00;81751.16;5036185;28;19967;-82
2022/07/23 05:47:49;;;;;;;;;;;;;;;17.01;100.00;73638.69;5019306;28;19909;-82
2022/07/23 05:50:15;;;;;;;;;;;;;;;17.18;100.00;64875.50;5019139;28;19986;-81
2022/07/23 05:52:41;;;;;;;;;;;;;;;17.15;100.00;72642.66;5019772;28;19909;-82
2022/07/23 05:55:07;;;;;;;;;;;;;;;17.32;100.00;90632.53;5018401;28;20000;-81
2022/07/23 05:57:32;;;;;;;;;;;;;;;17.88;100.00;108103.88;5034624;28;20379;-81
2022/07/23 05:59:58;;;;;;;;;;;;;;;18.07;100.00;143639.50;5019613;28;19909;-81
2022/07/23 06:02:23;;;;;;;;;;;;;;;18.13;100.00;147287.31;5035994;28;20004;-81
2022/07/23 06:04:48;;;;;;;;;;;;;;;18.12;100.00;147284.78;5035764;28;20014;-81
2022/07/23 06:07:13;;;;;;;;;;;;;;;17.61;100.00;147156.84;5018935;28;19921;-81
2022/07/23 06:09:38;;;;;;;;;;;;;;;17.41;100.00;147108.25;5018901;28;19913;-82
2022/07/23 06:12:04;;;;;;;;;;;;;;;17.40;100.00;147105.69;5019047;28;20314;-78
2022/07/23 06:14:32;;;;;;;;;;;;;;;17.59;100.00;147154.28;5018477;28;20352;-80
2022/07/23 06:16:59;;;;;;;;;;;;;;;17.71;100.00;147183.72;5018649;28;20222;-79
2022/07/23 06:19:24;;;;;;;;;;;;;;;17.60;100.00;147155.53;5000970;28;19924;-80
2022/07/23 06:21:49;;;;;;;;;;;;;;;17.39;100.00;147104.41;4999280;28;19913;-80
2022/07/23 06:24:14;;;;;;;;;;;;;;;17.30;100.00;147081.41;4999000;28;19995;-81
2022/07/23 06:26:40;;;;;;;;;;;;;;;17.58;100.00;147150.44;5016469;28;20325;-81
2022/07/23 06:29:07;;;;;;;;;;;;;;;17.77;100.00;147199.06;5015902;28;20015;-80
2022/07/23 06:31:33;;;;;;;;;;;;;;;17.68;100.00;147176.03;4998155;28;19920;-80
2022/07/23 06:33:59;;;;;;;;;;;;;;;17.87;100.00;147222.06;4998509;28;20008;-81
2022/07/23 06:36:24;;;;;;;;;;;;;;;17.71;100.00;147182.41;5016052;28;19913;-80
2022/07/23 06:38:50;;;;;;;;;;;;;;;17.35;100.00;147092.91;4997385;28;20025;-80
2022/07/23 06:41:15;;;;;;;;;;;;;;;17.34;100.00;147090.34;5014504;28;19939;-82
2022/07/23 06:43:40;;;;;;;;;;;;;;;17.67;100.00;147173.47;4997714;28;20518;-80
2022/07/23 06:46:05;;;;;;;;;;;;;;;17.87;100.00;147223.34;5013117;28;20000;-80
2022/07/23 06:48:31;;;;;;;;;;;;;;;18.10;100.00;147279.63;4997613;28;20317;-80
2022/07/23 06:50:56;;;;;;;;;;;;;;;18.36;100.00;147343.63;5014024;28;19967;-80
2022/07/23 06:53:21;;;;;;;;;;;;;;;17.94;100.00;147240.00;5013582;28;20311;-81
2022/07/23 06:55:46;;;;;;;;;;;;;;;17.92;100.00;147234.91;4997594;28;20297;-81
2022/07/23 06:58:13;;;;;;;;;;;;;;;17.96;100.00;147245.16;4997242;28;20342;-80
2022/07/23 07:00:38;;;;;;;;;;;;;;;18.04;100.00;147265.59;4996797;28;19913;-81
2022/07/23 07:03:05;;;;;;;;;;;;;;;17.81;100.00;147208.00;4997148;28;20052;-82
2022/07/23 07:05:30;;;;;;;;;;;;;;;17.96;100.00;147245.16;4997768;28;19917;-81
2022/07/23 07:07:55;;;;;;;;;;;;;;;18.00;100.00;147254.09;4996428;28;19909;-81
2022/07/23 07:10:22;;;;;;;;;;;;;;;18.41;100.00;147357.69;4996926;28;20390;-80
2022/07/23 07:12:51;;;;;;;;;;;;;;;18.86;100.00;147469.03;4996619;28;19913;-81
2022/07/23 07:15:16;;;;;;;;;;;;;;;18.64;100.00;147415.28;4996036;28;19921;-79
2022/07/23 07:17:42;;;;;;;;;;;;;;;19.25;100.00;147565.03;4997095;28;20338;-80
2022/07/23 07:20:08;;;;;;;;;;;;;;;19.44;100.00;147612.44;5013083;28;19972;-80
2022/07/23 07:22:34;;;;;;;;;;;;;;;20.55;100.00;147890.34;4996334;28;20257;-80
2022/07/23 07:24:59;;;;;;;;;;;;;;;22.13;100.00;148284.00;4997311;28;19961;-80
2022/07/23 07:27:24;;;;;;;;;;;;;;;22.64;100.00;148411.06;5014291;28;19944;-81
2022/07/23 07:29:50;;;;;;;;;;;;;;;22.18;100.00;148295.56;5012965;28;20008;-78
2022/07/23 07:32:15;;;;;;;;;;;;;;;21.77;100.00;148193.00;4996897;28;19921;-80
2022/07/23 07:34:40;;;;;;;;;;;;;;;22.45;100.00;148362.28;4996636;28;19913;-80
2022/07/23 07:37:06;;;;;;;;;;;;;;;22.83;100.00;148457.25;5013289;28;19921;-80
2022/07/23 07:39:31;;;;;;;;;;;;;;;23.39;100.00;148597.19;4996361;28;20289;-79
2022/07/23 07:41:56;;;;;;;;;;;;;;;24.28;100.00;148820.66;4995403;28;19917;-79
2022/07/23 07:44:22;;;;;;;;;;;;;;;23.27;100.00;148567.66;4997140;28;20417;-79
2022/07/23 07:46:48;;;;;;;;;;;;;;;22.61;100.00;148403.38;5015522;28;20416;-80
2022/07/23 07:49:13;;;;;;;;;;;;;;;22.76;100.00;148441.88;5014108;28;19917;-80
2022/07/23 07:51:38;;;;;;;;;;;;;;;23.99;100.00;148748.75;4996350;28;20097;-80
2022/07/23 07:54:04;;;;;;;;;;;;;;;24.70;100.00;148926.06;4997083;28;19913;-81
2022/07/23 07:56:29;;;;;;;;;;;;;;;23.94;100.00;148734.59;5013511;28;20025;-80
2022/07/23 07:58:54;;;;;;;;;;;;;;;23.53;100.00;148633.13;4997270;28;20593;-80
2022/07/23 08:01:19;;;;;;;;;;;;;;;23.66;100.00;148666.53;4997866;28;19919;-80
2022/07/23 08:03:45;;;;;;;;;;;;;;;23.49;100.00;148622.84;4996981;28;20297;-80
2022/07/23 08:06:10;;;;;;;;;;;;;;;24.17;100.00;148792.41;4996806;28;19913;-79
2022/07/23 08:08:36;;;;;;;;;;;;;;;22.78;100.00;148445.72;4997225;28;19914;-79
2022/07/23 08:11:01;;;;;;;;;;;;;;;23.04;100.00;148511.16;4996834;28;19917;-79
2022/07/23 08:13:31;;;;;;;;;;;;;;;23.21;100.00;148553.56;5015035;28;20350;-79
2022/07/23 08:15:56;;;;;;;;;;;;;;;23.91;100.00;148728.22;5000168;28;19914;-81
2022/07/23 08:18:21;;;;;;;;;;;;;;;23.71;100.00;148676.78;5000053;28;19956;-83
2022/07/23 08:20:46;;;;;;;;;;;;;;;23.75;100.00;148687.06;5018058;28;19914;-82
2022/07/23 08:23:21;;;;;;;;;;;;;;;24.13;100.00;148782.09;4998358;28;19921;-82
2022/07/23 08:25:46;;;;;;;;;;;;;;;24.83;100.00;148956.91;5017017;28;19913;-82
2022/07/23 08:28:13;;;;;;;;;;;;;;;25.11;100.00;149026.25;4999593;28;19925;-85
2022/07/23 08:30:39;;;;;;;;;;;;;;;24.31;100.00;148827.09;5003663;28;19913;-86
2022/07/23 08:33:07;;;;;;;;;;;;;;;24.49;100.00;148872.06;5007064;28;19924;-82
2022/07/23 08:35:33;;;;;;;;;;;;;;;24.89;100.00;148972.28;5003994;28;19914;-81
2022/07/23 08:38:00;;;;;;;;;;;;;;;24.78;100.00;148944.03;4999237;28;19936;-84
2022/07/23 08:40:25;;;;;;;;;;;;;;;24.31;100.00;148828.34;5000964;28;20251;-82
2022/07/23 08:42:52;;;;;;;;;;;;;;;23.55;100.00;148638.25;4999651;28;19921;-83
2022/07/23 08:45:19;;;;;;;;;;;;;;;24.18;100.00;148794.97;5019019;28;19913;-83
2022/07/23 08:47:44;;;;;;;;;;;;;;;24.54;100.00;148884.88;5000458;28;19910;-83
2022/07/23 08:50:09;;;;;;;;;;;;;;;24.26;100.00;148814.25;5000836;28;19968;-83
2022/07/23 08:52:36;;;;;;;;;;;;;;;23.59;100.00;148648.53;5019780;28;19913;-86
2022/07/23 08:55:01;;;;;;;;;;;;;;;24.32;100.00;148829.66;5003777;28;19909;-83
2022/07/23 08:57:26;;;;;;;;;;;;;;;24.58;100.00;148895.22;5005102;28;19913;-85
2022/07/23 08:59:52;;;;;;;;;;;;;;;24.66;100.00;148914.50;5003657;28;19910;-83
2022/07/23 09:02:17;;;;;;;;;;;;;;;23.52;100.00;148630.53;5004182;28;19924;-85
2022/07/23 09:04:45;;;;;;;;;;;;;;;23.58;100.00;148645.94;5002710;28;19914;-82
2022/07/23 09:07:10;;;;;;;;;;;;;;;24.46;100.00;148864.34;5002431;28;19964;-83
2022/07/23 09:09:35;;;;;;;;;;;;;;;23.95;100.00;148738.47;5001003;28;19940;-84
2022/07/23 09:12:05;;;;;;;;;;;;;;;23.79;100.00;148697.34;5022286;28;19924;-83
2022/07/23 09:14:36;;;;;;;;;;;;;;;23.79;100.00;148697.34;5027411;28;19913;-83
2022/07/23 09:17:12;;;;;;;;;;;;;;;23.64;100.00;148661.38;5003260;28;19917;-82
2022/07/23 09:19:37;;;;;;;;;;;;;;;23.40;100.00;148601.06;5023443;28;19917;-85
2022/07/23 09:22:21;;;;;;;;;;;;;;;23.88;100.00;148720.50;5023471;28;19924;-82
2022/07/23 09:25:06;;;;;;;;;;;;;;;24.37;100.00;148843.75;5023497;28;19994;-83
2022/07/23 09:27:49;;;;;;;;;;;;;;;24.17;100.00;148792.41;5020222;28;20000;-82
2022/07/23 09:30:14;;;;;;;;;;;;;;;25.03;100.00;149006.97;5016258;28;19916;-82
2022/07/23 09:32:40;;;;;;;;;;;;;;;24.47;100.00;148868.22;5020926;28;19976;-82
2022/07/23 09:35:06;;;;;;;;;;;;;;;25.74;100.00;149185.69;5014848;28;20376;-82
2022/07/23 09:37:31;;;;;;;;;;;;;;;24.82;100.00;148955.59;5018489;28;19913;-82
2022/07/23 09:40:04;;;;;;;;;;;;;;;24.70;100.00;148924.75;5018433;28;20003;-82
2022/07/23 09:42:30;;;;;;;;;;;;;;;24.34;100.00;148834.78;5015573;28;19913;-81
2022/07/23 09:44:57;;;;;;;;;;;;;;;24.88;100.00;148969.75;5015805;28;20042;-79
2022/07/23 09:47:23;;;;;;;;;;;;;;;24.20;100.00;148800.09;5014128;28;20392;-80
2022/07/23 09:50:00;;;;;;;;;;;;;;;24.28;100.00;148820.66;5013905;28;19952;-80
2022/07/23 09:52:54;;;;;;;;;;;;;;;23.84;100.00;148710.22;5014638;28;19940;-81
2022/07/23 09:55:33;;;;;;;;;;;;;;;23.15;100.00;148536.84;5005751;28;20014;-81
2022/07/23 09:57:59;;;;;;;;;;;;;;;23.04;100.00;148509.84;5031421;28;19920;-82
2022/07/23 10:00:24;;;;;;;;;;;;;;;22.85;100.00;148462.38;5014286;28;19913;-82
2022/07/23 10:02:49;;;;;;;;;;;;;;;22.83;100.00;148457.25;5030329;28;19913;-80
2022/07/23 10:05:15;;;;;;;;;;;;;;;22.84;100.00;148461.13;5013846;28;19951;-81
2022/07/23 10:07:41;;;;;;;;;;;;;;;22.90;100.00;148475.19;5014615;28;19924;-80
2022/07/23 10:10:07;;;;;;;;;;;;;;;23.19;100.00;148548.41;5013249;28;19944;-80
2022/07/23 10:15:17;;;;;;;;;;;;;;;22.58;100.00;148395.66;5035396;28;20032;-81
2022/07/23 10:17:42;;;;;;;;;;;;;;;22.78;100.00;148445.72;5017204;28;19961;-79
2022/07/23 10:20:07;;;;;;;;;;;;;;;23.14;100.00;148534.31;5036340;28;20384;-79
2022/07/23 10:22:38;;;;;;;;;;;;;;;22.91;100.00;148479.06;5021672;28;19936;-80
2022/07/23 10:25:08;;;;;;;;;;;;;;;23.30;100.00;148575.34;5023404;28;19985;-81
2022/07/23 10:27:45;;;;;;;;;;;;;;;23.28;100.00;148571.50;5038654;28;20396;-80
2022/07/23 10:30:15;;;;;;;;;;;;;;;23.04;100.00;148509.84;5035057;28;20388;-80
2022/07/23 10:32:41;;;;;;;;;;;;;;;22.94;100.00;148486.75;5017009;28;19908;-80
2022/07/23 10:35:20;;;;;;;;;;;;;;;23.09;100.00;148522.78;5035302;28;19920;-80
2022/07/23 10:37:49;;;;;;;;;;;;;;;23.17;100.00;148543.28;5017832;28;20375;-79
2022/07/23 10:40:18;;;;;;;;;;;;;;;23.36;100.00;148589.50;5017212;28;19917;-79
2022/07/23 10:42:45;;;;;;;;;;;;;;;23.84;100.00;148710.22;5017616;28;20423;-79
2022/07/23 10:45:29;;;;;;;;;;;;;;;24.56;100.00;148890.00;5017164;28;19913;-79
2022/07/23 10:47:56;;;;;;;;;;;;;;;24.54;100.00;148884.88;5017406;28;19916;-79
2022/07/23 10:50:27;;;;;;;;;;;;;;;23.69;100.00;148671.66;5033954;28;19912;-79
2022/07/23 10:53:09;;;;;;;;;;;;;;;23.67;100.00;148667.81;5016518;28;19910;-80
2022/07/23 10:55:34;;;;;;;;;;;;;;;24.05;100.00;148761.56;5017281;28;19913;-80
2022/07/23 10:58:02;;;;;;;;;;;;;;;24.11;100.00;148778.25;5016325;28;20474;-81
2022/07/23 11:00:29;;;;;;;;;;;;;;;23.81;100.00;148703.75;5016986;28;20050;-80
2022/07/23 11:02:55;;;;;;;;;;;;;;;24.10;100.00;148775.72;5016453;28;19959;-81
2022/07/23 11:05:22;;;;;;;;;;;;;;;24.18;100.00;148794.97;5016282;28;19913;-80
2022/07/23 11:08:07;;;;;;;;;;;;;;;24.05;100.00;148761.56;5017744;28;19923;-80
2022/07/23 11:10:35;;;;;;;;;;;;;;;24.21;100.00;148802.69;5017755;28;20032;-82
2022/07/23 11:13:19;;;;;;;;;;;;;;;23.61;100.00;148652.38;5016658;28;20416;-80
2022/07/23 11:16:08;;;;;;;;;;;;;;;23.84;100.00;148711.50;5016743;28;19915;-80
2022/07/23 11:18:39;;;;;;;;;;;;;;;24.32;100.00;148830.94;5016884;28;20333;-79
2022/07/23 11:21:23;;;;;;;;;;;;;;;24.38;100.00;148845.09;5017967;28;19913;-78
2022/07/23 11:24:03;;;;;;;;;;;;;;;23.85;100.00;148712.81;5016712;28;19960;-81
2022/07/23 11:26:40;;;;;;;;;;;;;;;23.63;100.00;148657.50;5033823;28;19966;-81
2022/07/23 11:29:25;;;;;;;;;;;;;;;24.40;100.00;148850.19;5016507;28;20342;-80
2022/07/23 11:32:00;;;;;;;;;;;;;;;24.35;100.00;148838.63;5034046;28;20019;-80
2022/07/23 11:34:38;;;;;;;;;;;;;;;24.31;100.00;148827.09;5016403;28;20365;-80
2022/07/23 11:37:05;;;;;;;;;;;;;;;23.64;100.00;148660.09;5016622;28;19919;-81
2022/07/23 11:39:30;;;;;;;;;;;;;;;23.75;100.00;148687.06;5017458;28;19913;-80
2022/07/23 11:41:56;;;;;;;;;;;;;;;23.65;100.00;148663.94;5015117;28;19967;-80
2022/07/23 11:44:32;;;;;;;;;;;;;;;23.92;100.00;148730.75;5033865;28;19927;-79
2022/07/23 11:46:58;;;;;;;;;;;;;;;23.80;100.00;148701.19;5015185;28;19932;-80
2022/07/23 11:49:24;;;;;;;;;;;;;;;24.40;100.00;148850.19;5015827;28;19920;-80
2022/07/23 11:52:08;;;;;;;;;;;;;;;24.27;100.00;148816.78;5016129;28;19909;-80
2022/07/23 11:54:36;;;;;;;;;;;;;;;24.03;100.00;148757.72;5015753;28;19944;-81
2022/07/23 11:57:01;;;;;;;;;;;;;;;23.27;100.00;148568.97;5015417;28;19913;-81
2022/07/23 11:59:28;;;;;;;;;;;;;;;23.81;100.00;148703.75;5033402;28;19971;-81
2022/07/23 12:02:01;;;;;;;;;;;;;;;24.11;100.00;148778.25;5015502;28;19909;-80
2022/07/23 12:04:39;;;;;;;;;;;;;;;24.45;100.00;148863.03;5016249;28;19919;-80
2022/07/23 12:07:04;;;;;;;;;;;;;;;24.39;100.00;148847.63;5015874;28;19909;-80
2022/07/23 12:09:29;;;;;;;;;;;;;;;23.46;100.00;148615.16;5033331;28;19920;-80
2022/07/23 12:11:59;;;;;;;;;;;;;;;22.95;100.00;148489.34;5031507;28;20003;-80
2022/07/23 12:14:25;;;;;;;;;;;;;;;23.14;100.00;148534.31;5016080;28;19952;-77
2022/07/23 12:17:11;;;;;;;;;;;;;;;23.23;100.00;148558.69;5015455;28;19913;-81
2022/07/23 12:19:36;;;;;;;;;;;;;;;23.70;100.00;148674.25;5014978;28;19917;-80
2022/07/23 12:22:01;;;;;;;;;;;;;;;24.18;100.00;148796.25;5015330;28;20141;-80
2022/07/23 12:24:26;;;;;;;;;;;;;;;24.23;100.00;148806.53;5032196;28;19913;-81
2022/07/23 12:27:09;;;;;;;;;;;;;;;23.67;100.00;148667.81;5015538;28;20339;-79
2022/07/23 12:29:35;;;;;;;;;;;;;;;23.86;100.00;148714.06;5014889;28;19924;-79
2022/07/23 12:32:02;;;;;;;;;;;;;;;23.31;100.00;148577.94;5014652;28;19917;-80